sensor_id;sensor_type;location;lat;lon;timestamp;temperature;humidity
6654;DHT22;3363;50.942;7.034;2023-02-01T00:01:14;6.30;99.90
6654;DHT22;3363;50.942;7.034;2023-02-01T00:03:40;6.30;99.90
6654;DHT22;3363;50.942;7.034;2023-02-01T00:06:07;6.30;99.90
6654;DHT22;3363;50.942;7.034;2023-02-01T00:08:34;6.20;99.90
6654;DHT22;3363;50.942;7.034;2023-02-01T00:11:01;6.20;99.90
6654;DHT22;3363;50.942;7.034;2023-02-01T00:13:28;6.20;99.90
6654;DHT22;3363;50.942;7.034;2023-02-01T00:16:01;6.20;99.90
6654;DHT22;3363;50.942;7.034;2023-02-01T00:18:29;6.20;99.90
6654;DHT22;3363;50.942;7.034;2023-02-01T00:20:56;6.20;99.90
6654;DHT22;3363;50.942;7.034;2023-02-01T00:23:23;6.20;99.90
6654;DHT22;3363;50.942;7.034;2023-02-01T00:25:49;6.20;99.90
6654;DHT22;3363;50.942;7.034;2023-02-01T00:28:16;6.20;99.90
6654;DHT22;3363;50.942;7.034;2023-02-01T00:30:43;6.20;99.90
6654;DHT22;3363;50.942;7.034;2023-02-01T00:33:09;6.20;99.90
6654;DHT22;3363;50.942;7.034;2023-02-01T00:35:37;6.20;99.90
6654;DHT22;3363;50.942;7.034;2023-02-01T00:38:04;6.20;99.90
6654;DHT22;3363;50.942;7.034;2023-02-01T00:40:30;6.20;99.90
6654;DHT22;3363;50.942;7.034;2023-02-01T00:42:57;6.20;99.90
6654;DHT22;3363;50.942;7.034;2023-02-01T00:45:24;6.20;99.90
6654;DHT22;3363;50.942;7.034;2023-02-01T00:47:50;6.10;99.90
6654;DHT22;3363;50.942;7.034;2023-02-01T00:50:17;6.10;99.90
6654;DHT22;3363;50.942;7.034;2023-02-01T00:52:45;6.10;99.90
6654;DHT22;3363;50.942;7.034;2023-02-01T00:55:12;6.10;99.90
6654;DHT22;3363;50.942;7.034;2023-02-01T00:57:39;6.20;99.90
6654;DHT22;3363;50.942;7.034;2023-02-01T01:00:06;6.20;99.90
6654;DHT22;3363;50.942;7.034;2023-02-01T01:02:32;6.20;99.90
6654;DHT22;3363;50.942;7.034;2023-02-01T01:04:59;6.20;99.90
6654;DHT22;3363;50.942;7.034;2023-02-01T01:07:27;6.20;99.90
6654;DHT22;3363;50.942;7.034;2023-02-01T01:09:55;6.20;99.90
6654;DHT22;3363;50.942;7.034;2023-02-01T01:12:21;6.20;99.90
6654;DHT22;3363;50.942;7.034;2023-02-01T01:14:48;6.10;99.90
6654;DHT22;3363;50.942;7.034;2023-02-01T01:17:15;6.10;99.90
6654;DHT22;3363;50.942;7.034;2023-02-01T01:19:42;6.10;99.90
6654;DHT22;3363;50.942;7.034;2023-02-01T01:22:09;6.10;99.90
6654;DHT22;3363;50.942;7.034;2023-02-01T01:24:36;6.10;99.90
6654;DHT22;3363;50.942;7.034;2023-02-01T01:27:04;6.10;99.90
6654;DHT22;3363;50.942;7.034;2023-02-01T01:29:30;6.10;99.90
6654;DHT22;3363;50.942;7.034;2023-02-01T01:31:57;6.10;99.90
6654;DHT22;3363;50.942;7.034;2023-02-01T01:34:24;6.10;99.90
6654;DHT22;3363;50.942;7.034;2023-02-01T01:36:50;6.10;99.90
6654;DHT22;3363;50.942;7.034;2023-02-01T01:39:17;6.10;99.90
6654;DHT22;3363;50.942;7.034;2023-02-01T01:41:44;6.10;99.90
6654;DHT22;3363;50.942;7.034;2023-02-01T01:46:53;6.10;99.90
6654;DHT22;3363;50.942;7.034;2023-02-01T01:49:20;6.10;99.90
6654;DHT22;3363;50.942;7.034;2023-02-01T01:51:48;6.10;99.90
6654;DHT22;3363;50.942;7.034;2023-02-01T01:54:16;6.10;99.90
6654;DHT22;3363;50.942;7.034;2023-02-01T01:56:43;6.10;99.90
6654;DHT22;3363;50.942;7.034;2023-02-01T01:59:12;6.10;99.90
6654;DHT22;3363;50.942;7.034;2023-02-01T02:01:39;6.00;99.90
6654;DHT22;3363;50.942;7.034;2023-02-01T02:04:07;6.00;99.90
6654;DHT22;3363;50.942;7.034;2023-02-01T02:06:36;6.00;99.90
6654;DHT22;3363;50.942;7.034;2023-02-01T02:09:04;6.00;99.90
6654;DHT22;3363;50.942;7.034;2023-02-01T02:11:31;6.00;99.90
6654;DHT22;3363;50.942;7.034;2023-02-01T02:13:57;6.00;99.90
6654;DHT22;3363;50.942;7.034;2023-02-01T02:16:28;6.00;99.90
6654;DHT22;3363;50.942;7.034;2023-02-01T02:19:11;6.00;99.90
6654;DHT22;3363;50.942;7.034;2023-02-01T02:21:52;6.00;99.90
6654;DHT22;3363;50.942;7.034;2023-02-01T02:27:10;6.00;99.90
6654;DHT22;3363;50.942;7.034;2023-02-01T02:32:45;6.00;99.90
6654;DHT22;3363;50.942;7.034;2023-02-01T02:35:16;6.00;99.90
6654;DHT22;3363;50.942;7.034;2023-02-01T02:37:47;6.00;99.90
6654;DHT22;3363;50.942;7.034;2023-02-01T02:40:18;6.00;99.90
6654;DHT22;3363;50.942;7.034;2023-02-01T02:42:49;6.00;99.90
6654;DHT22;3363;50.942;7.034;2023-02-01T02:45:35;6.00;99.90
6654;DHT22;3363;50.942;7.034;2023-02-01T02:48:20;6.00;99.90
6654;DHT22;3363;50.942;7.034;2023-02-01T02:50:50;6.00;99.90
6654;DHT22;3363;50.942;7.034;2023-02-01T02:53:38;6.00;99.90
6654;DHT22;3363;50.942;7.034;2023-02-01T02:56:24;6.00;99.90
6654;DHT22;3363;50.942;7.034;2023-02-01T02:59:11;6.00;99.90
6654;DHT22;3363;50.942;7.034;2023-02-01T03:01:56;6.00;99.90
6654;DHT22;3363;50.942;7.034;2023-02-01T03:04:40;6.00;99.90
6654;DHT22;3363;50.942;7.034;2023-02-01T03:07:13;6.00;99.90
6654;DHT22;3363;50.942;7.034;2023-02-01T03:09:40;6.00;99.90
6654;DHT22;3363;50.942;7.034;2023-02-01T03:12:10;6.00;99.90
6654;DHT22;3363;50.942;7.034;2023-02-01T03:15:00;6.00;99.90
6654;DHT22;3363;50.942;7.034;2023-02-01T03:17:29;6.00;99.90
6654;DHT22;3363;50.942;7.034;2023-02-01T03:19:56;6.00;99.90
6654;DHT22;3363;50.942;7.034;2023-02-01T03:22:28;6.00;99.90
6654;DHT22;3363;50.942;7.034;2023-02-01T03:24:58;6.00;99.90
6654;DHT22;3363;50.942;7.034;2023-02-01T03:27:27;6.00;99.90
6654;DHT22;3363;50.942;7.034;2023-02-01T03:29:54;6.00;99.90
6654;DHT22;3363;50.942;7.034;2023-02-01T03:32:22;6.00;99.90
6654;DHT22;3363;50.942;7.034;2023-02-01T03:34:49;6.00;99.90
6654;DHT22;3363;50.942;7.034;2023-02-01T03:37:17;6.00;99.90
6654;DHT22;3363;50.942;7.034;2023-02-01T03:39:51;6.10;99.90
6654;DHT22;3363;50.942;7.034;2023-02-01T03:42:19;6.10;99.90
6654;DHT22;3363;50.942;7.034;2023-02-01T03:44:49;6.10;99.90
6654;DHT22;3363;50.942;7.034;2023-02-01T03:47:16;6.10;99.90
6654;DHT22;3363;50.942;7.034;2023-02-01T03:49:46;6.10;99.90
6654;DHT22;3363;50.942;7.034;2023-02-01T03:52:14;6.00;99.90
6654;DHT22;3363;50.942;7.034;2023-02-01T03:54:42;6.00;99.90
6654;DHT22;3363;50.942;7.034;2023-02-01T03:57:12;6.00;99.90
6654;DHT22;3363;50.942;7.034;2023-02-01T03:59:46;6.00;99.90
6654;DHT22;3363;50.942;7.034;2023-02-01T04:02:13;6.00;99.90
6654;DHT22;3363;50.942;7.034;2023-02-01T04:04:40;6.00;99.90
6654;DHT22;3363;50.942;7.034;2023-02-01T04:07:06;6.00;99.90
6654;DHT22;3363;50.942;7.034;2023-02-01T04:09:33;6.10;99.90
6654;DHT22;3363;50.942;7.034;2023-02-01T04:12:00;6.10;99.90
6654;DHT22;3363;50.942;7.034;2023-02-01T04:14:28;6.00;99.90
6654;DHT22;3363;50.942;7.034;2023-02-01T04:16:55;6.10;99.90
6654;DHT22;3363;50.942;7.034;2023-02-01T04:19:21;6.10;99.30
6654;DHT22;3363;50.942;7.034;2023-02-01T04:21:48;6.10;99.90
6654;DHT22;3363;50.942;7.034;2023-02-01T04:24:15;6.00;99.90
6654;DHT22;3363;50.942;7.034;2023-02-01T04:26:41;6.00;99.90
6654;DHT22;3363;50.942;7.034;2023-02-01T04:29:08;6.10;99.70
6654;DHT22;3363;50.942;7.034;2023-02-01T04:31:36;6.10;99.90
6654;DHT22;3363;50.942;7.034;2023-02-01T04:34:03;6.10;99.40
6654;DHT22;3363;50.942;7.034;2023-02-01T04:36:35;6.10;99.60
6654;DHT22;3363;50.942;7.034;2023-02-01T04:39:02;6.10;99.90
6654;DHT22;3363;50.942;7.034;2023-02-01T04:41:29;6.10;99.90
6654;DHT22;3363;50.942;7.034;2023-02-01T04:43:55;6.00;99.90
6654;DHT22;3363;50.942;7.034;2023-02-01T04:46:22;6.00;99.90
6654;DHT22;3363;50.942;7.034;2023-02-01T04:48:50;6.00;99.90
6654;DHT22;3363;50.942;7.034;2023-02-01T04:51:17;6.00;98.30
6654;DHT22;3363;50.942;7.034;2023-02-01T04:53:44;6.00;97.90
6654;DHT22;3363;50.942;7.034;2023-02-01T04:56:10;6.00;99.70
6654;DHT22;3363;50.942;7.034;2023-02-01T04:58:37;5.90;99.90
6654;DHT22;3363;50.942;7.034;2023-02-01T05:01:04;5.90;98.40
6654;DHT22;3363;50.942;7.034;2023-02-01T05:03:31;5.90;98.40
6654;DHT22;3363;50.942;7.034;2023-02-01T05:05:59;5.90;97.20
6654;DHT22;3363;50.942;7.034;2023-02-01T05:08:26;5.90;96.00
6654;DHT22;3363;50.942;7.034;2023-02-01T05:10:54;5.90;98.80
6654;DHT22;3363;50.942;7.034;2023-02-01T05:13:20;5.90;98.90
6654;DHT22;3363;50.942;7.034;2023-02-01T05:16:05;5.90;97.60
6654;DHT22;3363;50.942;7.034;2023-02-01T05:18:41;5.80;98.80
6654;DHT22;3363;50.942;7.034;2023-02-01T05:21:09;5.90;97.50
6654;DHT22;3363;50.942;7.034;2023-02-01T05:23:36;5.90;99.50
6654;DHT22;3363;50.942;7.034;2023-02-01T05:26:23;5.80;96.30
6654;DHT22;3363;50.942;7.034;2023-02-01T05:28:50;5.80;97.20
6654;DHT22;3363;50.942;7.034;2023-02-01T05:31:17;5.90;94.60
6654;DHT22;3363;50.942;7.034;2023-02-01T05:33:44;5.90;95.90
6654;DHT22;3363;50.942;7.034;2023-02-01T05:36:12;5.80;94.80
6654;DHT22;3363;50.942;7.034;2023-02-01T05:38:38;5.80;96.10
6654;DHT22;3363;50.942;7.034;2023-02-01T05:41:05;5.80;94.30
6654;DHT22;3363;50.942;7.034;2023-02-01T05:43:32;5.80;97.50
6654;DHT22;3363;50.942;7.034;2023-02-01T05:46:03;5.80;94.90
6654;DHT22;3363;50.942;7.034;2023-02-01T05:48:29;5.80;95.80
6654;DHT22;3363;50.942;7.034;2023-02-01T05:50:56;5.80;97.70
6654;DHT22;3363;50.942;7.034;2023-02-01T05:53:24;5.70;98.20
6654;DHT22;3363;50.942;7.034;2023-02-01T05:55:51;5.80;95.10
6654;DHT22;3363;50.942;7.034;2023-02-01T05:58:17;5.80;95.80
6654;DHT22;3363;50.942;7.034;2023-02-01T06:00:44;5.70;97.00
6654;DHT22;3363;50.942;7.034;2023-02-01T06:03:11;5.70;97.20
6654;DHT22;3363;50.942;7.034;2023-02-01T06:05:37;5.70;96.20
6654;DHT22;3363;50.942;7.034;2023-02-01T06:08:04;5.70;97.20
6654;DHT22;3363;50.942;7.034;2023-02-01T06:10:34;5.80;94.50
6654;DHT22;3363;50.942;7.034;2023-02-01T06:13:00;5.80;94.10
6654;DHT22;3363;50.942;7.034;2023-02-01T06:15:28;5.80;92.40
6654;DHT22;3363;50.942;7.034;2023-02-01T06:17:55;5.80;94.00
6654;DHT22;3363;50.942;7.034;2023-02-01T06:20:21;5.70;94.50
6654;DHT22;3363;50.942;7.034;2023-02-01T06:22:48;5.70;94.20
6654;DHT22;3363;50.942;7.034;2023-02-01T06:25:15;5.70;93.90
6654;DHT22;3363;50.942;7.034;2023-02-01T06:27:43;5.70;93.60
6654;DHT22;3363;50.942;7.034;2023-02-01T06:30:11;5.70;92.40
6654;DHT22;3363;50.942;7.034;2023-02-01T06:32:38;5.70;95.30
6654;DHT22;3363;50.942;7.034;2023-02-01T06:35:06;5.70;93.30
6654;DHT22;3363;50.942;7.034;2023-02-01T06:37:33;5.70;93.10
6654;DHT22;3363;50.942;7.034;2023-02-01T06:40:00;5.70;91.60
6654;DHT22;3363;50.942;7.034;2023-02-01T06:42:26;5.70;91.00
6654;DHT22;3363;50.942;7.034;2023-02-01T06:44:58;5.80;91.10
6654;DHT22;3363;50.942;7.034;2023-02-01T06:47:25;5.80;92.00
6654;DHT22;3363;50.942;7.034;2023-02-01T06:49:52;5.70;92.70
6654;DHT22;3363;50.942;7.034;2023-02-01T06:52:18;5.80;90.50
6654;DHT22;3363;50.942;7.034;2023-02-01T06:54:45;5.80;90.80
6654;DHT22;3363;50.942;7.034;2023-02-01T06:57:12;5.90;89.50
6654;DHT22;3363;50.942;7.034;2023-02-01T06:59:45;5.90;90.80
6654;DHT22;3363;50.942;7.034;2023-02-01T07:02:13;5.90;91.40
6654;DHT22;3363;50.942;7.034;2023-02-01T07:04:40;5.80;91.00
6654;DHT22;3363;50.942;7.034;2023-02-01T07:07:07;5.80;91.90
6654;DHT22;3363;50.942;7.034;2023-02-01T07:09:34;5.80;91.70
6654;DHT22;3363;50.942;7.034;2023-02-01T07:12:00;5.80;92.10
6654;DHT22;3363;50.942;7.034;2023-02-01T07:14:27;5.80;91.80
6654;DHT22;3363;50.942;7.034;2023-02-01T07:16:54;5.80;92.40
6654;DHT22;3363;50.942;7.034;2023-02-01T07:19:22;5.80;91.60
6654;DHT22;3363;50.942;7.034;2023-02-01T07:21:48;5.80;91.60
6654;DHT22;3363;50.942;7.034;2023-02-01T07:24:15;5.80;92.10
6654;DHT22;3363;50.942;7.034;2023-02-01T07:26:41;5.80;92.70
6654;DHT22;3363;50.942;7.034;2023-02-01T07:29:08;5.80;92.30
6654;DHT22;3363;50.942;7.034;2023-02-01T07:31:39;5.80;92.70
6654;DHT22;3363;50.942;7.034;2023-02-01T07:34:06;5.80;93.10
6654;DHT22;3363;50.942;7.034;2023-02-01T07:36:34;5.80;92.00
6654;DHT22;3363;50.942;7.034;2023-02-01T07:39:02;5.80;92.00
6654;DHT22;3363;50.942;7.034;2023-02-01T07:41:29;5.90;92.30
6654;DHT22;3363;50.942;7.034;2023-02-01T07:43:56;5.90;90.80
6654;DHT22;3363;50.942;7.034;2023-02-01T07:46:23;5.90;92.40
6654;DHT22;3363;50.942;7.034;2023-02-01T07:48:51;5.80;92.60
6654;DHT22;3363;50.942;7.034;2023-02-01T07:51:17;5.80;92.20
6654;DHT22;3363;50.942;7.034;2023-02-01T07:53:46;5.90;91.70
6654;DHT22;3363;50.942;7.034;2023-02-01T07:56:13;5.90;92.30
6654;DHT22;3363;50.942;7.034;2023-02-01T07:58:40;5.90;92.00
6654;DHT22;3363;50.942;7.034;2023-02-01T08:01:14;5.90;91.90
6654;DHT22;3363;50.942;7.034;2023-02-01T08:03:46;5.90;91.80
6654;DHT22;3363;50.942;7.034;2023-02-01T08:06:13;5.90;91.70
6654;DHT22;3363;50.942;7.034;2023-02-01T08:08:39;5.90;91.60
6654;DHT22;3363;50.942;7.034;2023-02-01T08:11:07;5.90;91.60
6654;DHT22;3363;50.942;7.034;2023-02-01T08:13:34;5.80;91.90
6654;DHT22;3363;50.942;7.034;2023-02-01T08:16:03;5.90;91.00
6654;DHT22;3363;50.942;7.034;2023-02-01T08:18:30;5.80;92.00
6654;DHT22;3363;50.942;7.034;2023-02-01T08:21:01;5.80;92.30
6654;DHT22;3363;50.942;7.034;2023-02-01T08:23:29;5.90;90.50
6654;DHT22;3363;50.942;7.034;2023-02-01T08:26:04;5.90;91.20
6654;DHT22;3363;50.942;7.034;2023-02-01T08:28:33;5.90;91.50
6654;DHT22;3363;50.942;7.034;2023-02-01T08:31:07;5.90;91.70
6654;DHT22;3363;50.942;7.034;2023-02-01T08:33:34;5.90;91.40
6654;DHT22;3363;50.942;7.034;2023-02-01T08:36:01;5.80;91.90
6654;DHT22;3363;50.942;7.034;2023-02-01T08:38:30;5.90;91.40
6654;DHT22;3363;50.942;7.034;2023-02-01T08:40:57;5.90;91.40
6654;DHT22;3363;50.942;7.034;2023-02-01T08:43:23;5.90;91.60
6654;DHT22;3363;50.942;7.034;2023-02-01T08:45:51;5.90;91.70
6654;DHT22;3363;50.942;7.034;2023-02-01T08:48:20;5.90;91.10
6654;DHT22;3363;50.942;7.034;2023-02-01T08:50:46;6.00;90.80
6654;DHT22;3363;50.942;7.034;2023-02-01T08:53:13;6.00;91.10
6654;DHT22;3363;50.942;7.034;2023-02-01T08:55:40;6.00;91.30
6654;DHT22;3363;50.942;7.034;2023-02-01T08:58:06;5.90;91.40
6654;DHT22;3363;50.942;7.034;2023-02-01T09:00:33;6.00;90.90
6654;DHT22;3363;50.942;7.034;2023-02-01T09:03:01;6.10;90.30
6654;DHT22;3363;50.942;7.034;2023-02-01T09:05:28;6.10;90.20
6654;DHT22;3363;50.942;7.034;2023-02-01T09:07:54;6.10;90.50
6654;DHT22;3363;50.942;7.034;2023-02-01T09:10:21;6.10;90.90
6654;DHT22;3363;50.942;7.034;2023-02-01T09:12:48;6.10;90.10
6654;DHT22;3363;50.942;7.034;2023-02-01T09:15:15;6.10;89.00
6654;DHT22;3363;50.942;7.034;2023-02-01T09:17:41;6.20;88.70
6654;DHT22;3363;50.942;7.034;2023-02-01T09:20:10;6.20;88.50
6654;DHT22;3363;50.942;7.034;2023-02-01T09:22:38;6.20;88.40
6654;DHT22;3363;50.942;7.034;2023-02-01T09:25:06;6.20;86.90
6654;DHT22;3363;50.942;7.034;2023-02-01T09:27:33;6.30;87.80
6654;DHT22;3363;50.942;7.034;2023-02-01T09:30:00;6.30;87.60
6654;DHT22;3363;50.942;7.034;2023-02-01T09:32:26;6.40;84.80
6654;DHT22;3363;50.942;7.034;2023-02-01T09:34:53;6.40;83.80
6654;DHT22;3363;50.942;7.034;2023-02-01T09:37:21;6.40;83.40
6654;DHT22;3363;50.942;7.034;2023-02-01T09:39:47;6.30;83.00
6654;DHT22;3363;50.942;7.034;2023-02-01T09:42:16;6.40;82.20
6654;DHT22;3363;50.942;7.034;2023-02-01T09:44:55;6.40;82.30
6654;DHT22;3363;50.942;7.034;2023-02-01T09:47:24;6.50;81.60
6654;DHT22;3363;50.942;7.034;2023-02-01T09:49:52;6.50;81.30
6654;DHT22;3363;50.942;7.034;2023-02-01T09:52:24;6.50;81.40
6654;DHT22;3363;50.942;7.034;2023-02-01T09:54:54;6.50;81.70
6654;DHT22;3363;50.942;7.034;2023-02-01T09:57:27;6.50;81.00
6654;DHT22;3363;50.942;7.034;2023-02-01T09:59:55;6.50;81.10
6654;DHT22;3363;50.942;7.034;2023-02-01T10:02:25;6.60;80.80
6654;DHT22;3363;50.942;7.034;2023-02-01T10:04:53;6.60;81.20
6654;DHT22;3363;50.942;7.034;2023-02-01T10:07:24;6.60;81.10
6654;DHT22;3363;50.942;7.034;2023-02-01T10:09:55;6.50;81.20
6654;DHT22;3363;50.942;7.034;2023-02-01T10:12:47;6.70;80.40
6654;DHT22;3363;50.942;7.034;2023-02-01T10:15:18;6.70;79.70
6654;DHT22;3363;50.942;7.034;2023-02-01T10:17:49;6.70;79.80
6654;DHT22;3363;50.942;7.034;2023-02-01T10:20:21;6.60;79.50
6654;DHT22;3363;50.942;7.034;2023-02-01T10:22:54;6.70;79.60
6654;DHT22;3363;50.942;7.034;2023-02-01T10:25:26;6.80;79.40
6654;DHT22;3363;50.942;7.034;2023-02-01T10:27:53;7.00;78.20
6654;DHT22;3363;50.942;7.034;2023-02-01T10:30:21;7.00;77.60
6654;DHT22;3363;50.942;7.034;2023-02-01T10:32:48;6.90;77.50
6654;DHT22;3363;50.942;7.034;2023-02-01T10:35:17;7.00;77.60
6654;DHT22;3363;50.942;7.034;2023-02-01T10:37:45;7.00;77.20
6654;DHT22;3363;50.942;7.034;2023-02-01T10:40:15;7.10;76.50
6654;DHT22;3363;50.942;7.034;2023-02-01T10:42:42;7.10;75.70
6654;DHT22;3363;50.942;7.034;2023-02-01T10:45:11;7.20;75.90
6654;DHT22;3363;50.942;7.034;2023-02-01T10:47:39;7.30;74.60
6654;DHT22;3363;50.942;7.034;2023-02-01T10:50:10;7.40;73.90
6654;DHT22;3363;50.942;7.034;2023-02-01T10:52:41;7.40;74.00
6654;DHT22;3363;50.942;7.034;2023-02-01T10:58:16;7.50;72.80
6654;DHT22;3363;50.942;7.034;2023-02-01T11:00:44;7.60;72.00
6654;DHT22;3363;50.942;7.034;2023-02-01T11:06:02;7.60;70.50
6654;DHT22;3363;50.942;7.034;2023-02-01T11:08:29;7.60;71.70
6654;DHT22;3363;50.942;7.034;2023-02-01T11:10:57;7.40;71.60
6654;DHT22;3363;50.942;7.034;2023-02-01T11:13:27;7.40;71.60
6654;DHT22;3363;50.942;7.034;2023-02-01T11:15:54;7.40;71.90
6654;DHT22;3363;50.942;7.034;2023-02-01T11:18:25;7.40;71.90
6654;DHT22;3363;50.942;7.034;2023-02-01T11:20:52;7.30;72.20
6654;DHT22;3363;50.942;7.034;2023-02-01T11:23:21;7.30;72.10
6654;DHT22;3363;50.942;7.034;2023-02-01T11:25:48;7.20;72.80
6654;DHT22;3363;50.942;7.034;2023-02-01T11:28:15;7.30;71.70
6654;DHT22;3363;50.942;7.034;2023-02-01T11:30:44;7.20;72.20
6654;DHT22;3363;50.942;7.034;2023-02-01T11:33:13;7.20;72.00
6654;DHT22;3363;50.942;7.034;2023-02-01T11:35:41;7.30;72.00
6654;DHT22;3363;50.942;7.034;2023-02-01T11:38:15;7.30;72.50
6654;DHT22;3363;50.942;7.034;2023-02-01T11:40:44;7.40;72.00
6654;DHT22;3363;50.942;7.034;2023-02-01T11:43:13;7.40;72.50
6654;DHT22;3363;50.942;7.034;2023-02-01T11:45:40;7.40;72.50
6654;DHT22;3363;50.942;7.034;2023-02-01T11:48:09;7.60;71.80
6654;DHT22;3363;50.942;7.034;2023-02-01T11:50:37;7.40;71.80
6654;DHT22;3363;50.942;7.034;2023-02-01T11:53:13;7.50;71.10
6654;DHT22;3363;50.942;7.034;2023-02-01T11:55:45;7.50;71.50
6654;DHT22;3363;50.942;7.034;2023-02-01T11:58:20;7.40;72.40
6654;DHT22;3363;50.942;7.034;2023-02-01T12:00:53;7.40;71.50
6654;DHT22;3363;50.942;7.034;2023-02-01T12:03:44;7.40;71.50
6654;DHT22;3363;50.942;7.034;2023-02-01T12:06:18;7.30;71.90
6654;DHT22;3363;50.942;7.034;2023-02-01T12:11:44;7.30;71.70
6654;DHT22;3363;50.942;7.034;2023-02-01T12:14:17;7.40;70.70
6654;DHT22;3363;50.942;7.034;2023-02-01T12:16:47;7.40;71.20
6654;DHT22;3363;50.942;7.034;2023-02-01T12:19:30;7.30;71.50
6654;DHT22;3363;50.942;7.034;2023-02-01T12:22:03;7.30;71.10
6654;DHT22;3363;50.942;7.034;2023-02-01T12:24:37;7.40;71.50
6654;DHT22;3363;50.942;7.034;2023-02-01T12:27:10;7.30;71.50
6654;DHT22;3363;50.942;7.034;2023-02-01T12:29:55;7.30;71.70
6654;DHT22;3363;50.942;7.034;2023-02-01T12:32:28;7.20;71.30
6654;DHT22;3363;50.942;7.034;2023-02-01T12:35:11;7.40;71.50
6654;DHT22;3363;50.942;7.034;2023-02-01T12:37:44;7.30;72.00
6654;DHT22;3363;50.942;7.034;2023-02-01T12:40:19;7.50;71.10
6654;DHT22;3363;50.942;7.034;2023-02-01T12:42:48;7.20;72.10
6654;DHT22;3363;50.942;7.034;2023-02-01T12:45:20;7.30;71.70
6654;DHT22;3363;50.942;7.034;2023-02-01T12:47:50;7.40;70.90
6654;DHT22;3363;50.942;7.034;2023-02-01T12:50:19;7.30;71.90
6654;DHT22;3363;50.942;7.034;2023-02-01T12:52:50;7.30;72.00
6654;DHT22;3363;50.942;7.034;2023-02-01T12:55:18;7.30;71.90
6654;DHT22;3363;50.942;7.034;2023-02-01T12:57:47;7.20;72.00
6654;DHT22;3363;50.942;7.034;2023-02-01T13:00:17;7.30;71.80
6654;DHT22;3363;50.942;7.034;2023-02-01T13:02:50;7.40;71.40
6654;DHT22;3363;50.942;7.034;2023-02-01T13:05:20;7.30;71.80
6654;DHT22;3363;50.942;7.034;2023-02-01T13:07:50;7.30;71.80
6654;DHT22;3363;50.942;7.034;2023-02-01T13:10:21;7.20;72.20
6654;DHT22;3363;50.942;7.034;2023-02-01T13:12:50;7.50;70.40
6654;DHT22;3363;50.942;7.034;2023-02-01T13:15:19;7.50;70.50
6654;DHT22;3363;50.942;7.034;2023-02-01T13:17:47;7.50;70.00
6654;DHT22;3363;50.942;7.034;2023-02-01T13:20:16;7.50;70.00
6654;DHT22;3363;50.942;7.034;2023-02-01T13:22:46;7.50;70.00
6654;DHT22;3363;50.942;7.034;2023-02-01T13:25:15;7.60;70.10
6654;DHT22;3363;50.942;7.034;2023-02-01T13:27:42;7.40;70.50
6654;DHT22;3363;50.942;7.034;2023-02-01T13:30:11;7.40;70.50
6654;DHT22;3363;50.942;7.034;2023-02-01T13:32:52;7.40;71.00
6654;DHT22;3363;50.942;7.034;2023-02-01T13:35:26;7.40;70.80
6654;DHT22;3363;50.942;7.034;2023-02-01T13:38:08;7.40;71.00
6654;DHT22;3363;50.942;7.034;2023-02-01T13:40:39;7.40;71.00
6654;DHT22;3363;50.942;7.034;2023-02-01T13:43:09;7.40;71.70
6654;DHT22;3363;50.942;7.034;2023-02-01T13:45:42;7.40;71.80
6654;DHT22;3363;50.942;7.034;2023-02-01T13:48:21;7.30;72.00
6654;DHT22;3363;50.942;7.034;2023-02-01T13:50:50;7.50;71.90
6654;DHT22;3363;50.942;7.034;2023-02-01T13:53:21;7.40;72.40
6654;DHT22;3363;50.942;7.034;2023-02-01T13:55:51;7.30;72.40
6654;DHT22;3363;50.942;7.034;2023-02-01T13:58:22;7.40;72.60
6654;DHT22;3363;50.942;7.034;2023-02-01T14:01:31;7.40;72.70
6654;DHT22;3363;50.942;7.034;2023-02-01T14:03:49;7.40;72.50
6654;DHT22;3363;50.942;7.034;2023-02-01T14:06:18;7.40;72.40
6654;DHT22;3363;50.942;7.034;2023-02-01T14:09:21;7.40;73.00
6654;DHT22;3363;50.942;7.034;2023-02-01T14:11:58;7.40;72.30
6654;DHT22;3363;50.942;7.034;2023-02-01T14:22:48;7.50;71.80
6654;DHT22;3363;50.942;7.034;2023-02-01T14:25:17;7.50;71.30
6654;DHT22;3363;50.942;7.034;2023-02-01T14:27:44;7.40;72.10
6654;DHT22;3363;50.942;7.034;2023-02-01T14:30:14;7.60;70.20
6654;DHT22;3363;50.942;7.034;2023-02-01T14:32:41;7.60;71.10
6654;DHT22;3363;50.942;7.034;2023-02-01T14:35:17;7.60;71.30
6654;DHT22;3363;50.942;7.034;2023-02-01T14:37:44;7.60;70.90
6654;DHT22;3363;50.942;7.034;2023-02-01T14:40:15;7.70;70.50
6654;DHT22;3363;50.942;7.034;2023-02-01T14:42:44;7.60;70.70
6654;DHT22;3363;50.942;7.034;2023-02-01T14:48:38;7.60;70.70
6654;DHT22;3363;50.942;7.034;2023-02-01T14:50:43;7.70;70.20
6654;DHT22;3363;50.942;7.034;2023-02-01T14:53:14;7.60;70.10
6654;DHT22;3363;50.942;7.034;2023-02-01T14:55:42;7.60;70.10
6654;DHT22;3363;50.942;7.034;2023-02-01T14:58:16;7.60;70.30
6654;DHT22;3363;50.942;7.034;2023-02-01T15:00:48;7.70;69.70
6654;DHT22;3363;50.942;7.034;2023-02-01T15:03:19;7.60;69.70
6654;DHT22;3363;50.942;7.034;2023-02-01T15:05:54;7.60;70.00
6654;DHT22;3363;50.942;7.034;2023-02-01T15:08:23;7.70;69.90
6654;DHT22;3363;50.942;7.034;2023-02-01T15:10:51;7.60;69.40
6654;DHT22;3363;50.942;7.034;2023-02-01T15:13:20;7.70;69.60
6654;DHT22;3363;50.942;7.034;2023-02-01T15:16:00;7.60;69.60
6654;DHT22;3363;50.942;7.034;2023-02-01T15:18:27;7.80;68.90
6654;DHT22;3363;50.942;7.034;2023-02-01T15:20:57;7.70;69.50
6654;DHT22;3363;50.942;7.034;2023-02-01T15:23:24;7.70;69.70
6654;DHT22;3363;50.942;7.034;2023-02-01T15:25:51;7.70;68.40
6654;DHT22;3363;50.942;7.034;2023-02-01T15:28:17;7.70;69.10
6654;DHT22;3363;50.942;7.034;2023-02-01T15:30:52;7.90;68.20
6654;DHT22;3363;50.942;7.034;2023-02-01T15:33:19;7.80;68.50
6654;DHT22;3363;50.942;7.034;2023-02-01T15:35:47;7.90;68.60
6654;DHT22;3363;50.942;7.034;2023-02-01T15:41:03;7.80;69.00
6654;DHT22;3363;50.942;7.034;2023-02-01T15:43:31;7.70;68.70
6654;DHT22;3363;50.942;7.034;2023-02-01T15:46:00;7.60;69.10
6654;DHT22;3363;50.942;7.034;2023-02-01T15:48:29;7.70;69.10
6654;DHT22;3363;50.942;7.034;2023-02-01T15:50:58;7.80;68.80
6654;DHT22;3363;50.942;7.034;2023-02-01T15:53:26;7.80;68.80
6654;DHT22;3363;50.942;7.034;2023-02-01T15:55:57;7.80;68.70
6654;DHT22;3363;50.942;7.034;2023-02-01T15:58:24;7.70;68.60
6654;DHT22;3363;50.942;7.034;2023-02-01T16:00:52;7.80;69.00
6654;DHT22;3363;50.942;7.034;2023-02-01T16:03:25;7.80;68.60
6654;DHT22;3363;50.942;7.034;2023-02-01T16:05:56;7.80;68.70
6654;DHT22;3363;50.942;7.034;2023-02-01T16:08:24;7.80;69.20
6654;DHT22;3363;50.942;7.034;2023-02-01T16:10:52;7.70;69.00
6654;DHT22;3363;50.942;7.034;2023-02-01T16:13:19;7.70;69.30
6654;DHT22;3363;50.942;7.034;2023-02-01T16:15:47;7.60;69.70
6654;DHT22;3363;50.942;7.034;2023-02-01T16:18:16;7.60;69.80
6654;DHT22;3363;50.942;7.034;2023-02-01T16:20:44;7.50;70.00
6654;DHT22;3363;50.942;7.034;2023-02-01T16:23:11;7.60;70.10
6654;DHT22;3363;50.942;7.034;2023-02-01T16:25:39;7.60;70.10
6654;DHT22;3363;50.942;7.034;2023-02-01T16:28:05;7.60;70.70
6654;DHT22;3363;50.942;7.034;2023-02-01T16:30:33;7.50;70.90
6654;DHT22;3363;50.942;7.034;2023-02-01T16:33:00;7.60;71.30
6654;DHT22;3363;50.942;7.034;2023-02-01T16:35:30;7.60;72.00
6654;DHT22;3363;50.942;7.034;2023-02-01T16:38:02;7.60;73.00
6654;DHT22;3363;50.942;7.034;2023-02-01T16:40:34;7.50;74.00
6654;DHT22;3363;50.942;7.034;2023-02-01T16:43:00;7.50;74.60
6654;DHT22;3363;50.942;7.034;2023-02-01T16:45:27;7.50;75.10
6654;DHT22;3363;50.942;7.034;2023-02-01T16:47:54;7.40;75.80
6654;DHT22;3363;50.942;7.034;2023-02-01T16:50:22;7.40;75.90
6654;DHT22;3363;50.942;7.034;2023-02-01T16:52:49;7.40;76.90
6654;DHT22;3363;50.942;7.034;2023-02-01T16:55:18;7.40;77.90
6654;DHT22;3363;50.942;7.034;2023-02-01T16:57:46;7.40;77.40
6654;DHT22;3363;50.942;7.034;2023-02-01T17:00:13;7.40;77.90
6654;DHT22;3363;50.942;7.034;2023-02-01T17:02:41;7.30;78.50